sensor_id;sensor_type;location;lat;lon;timestamp;pressure;altitude;pressure_sealevel;temperature;humidity
78407;BME280;67692;51.074;-1.790;2024-01-30T00:01:13;101467.81;;;10.33;100.00
78407;BME280;67692;51.074;-1.790;2024-01-30T00:03:39;101495.19;;;10.37;100.00
78407;BME280;67692;51.074;-1.790;2024-01-30T00:06:08;101496.47;;;10.30;100.00
78407;BME280;67692;51.074;-1.790;2024-01-30T00:08:35;101488.31;;;10.21;100.00
78407;BME280;67692;51.074;-1.790;2024-01-30T00:11:01;101489.00;;;10.24;100.00
78407;BME280;67692;51.074;-1.790;2024-01-30T00:13:28;101492.66;;;10.20;100.00
78407;BME280;67692;51.074;-1.790;2024-01-30T00:15:55;101506.69;;;10.16;100.00
78407;BME280;67692;51.074;-1.790;2024-01-30T00:18:21;101515.38;;;10.15;100.00
78407;BME280;67692;51.074;-1.790;2024-01-30T00:20:48;101508.34;;;10.17;100.00
78407;BME280;67692;51.074;-1.790;2024-01-30T00:23:16;101515.22;;;10.18;100.00
78407;BME280;67692;51.074;-1.790;2024-01-30T00:25:43;101520.38;;;10.18;100.00
78407;BME280;67692;51.074;-1.790;2024-01-30T00:28:09;101530.44;;;10.24;100.00
78407;BME280;67692;51.074;-1.790;2024-01-30T00:30:36;101530.28;;;10.27;100.00
78407;BME280;67692;51.074;-1.790;2024-01-30T00:33:03;101525.78;;;10.31;100.00
78407;BME280;67692;51.074;-1.790;2024-01-30T00:35:30;101525.09;;;10.27;100.00
78407;BME280;67692;51.074;-1.790;2024-01-30T00:37:57;101524.94;;;10.30;100.00
78407;BME280;67692;51.074;-1.790;2024-01-30T00:40:25;101512.53;;;10.20;100.00
78407;BME280;67692;51.074;-1.790;2024-01-30T00:42:51;101515.94;;;10.20;100.00
78407;BME280;67692;51.074;-1.790;2024-01-30T00:45:18;101525.72;;;10.15;100.00
78407;BME280;67692;51.074;-1.790;2024-01-30T00:47:45;101536.09;;;10.15;100.00
78407;BME280;67692;51.074;-1.790;2024-01-30T00:50:11;101528.91;;;10.20;100.00
78407;BME280;67692;51.074;-1.790;2024-01-30T00:52:38;101541.09;;;10.18;100.00
78407;BME280;67692;51.074;-1.790;2024-01-30T00:55:06;101548.72;;;10.21;100.00
78407;BME280;67692;51.074;-1.790;2024-01-30T00:57:34;101563.47;;;10.19;100.00
78407;BME280;67692;51.074;-1.790;2024-01-30T01:00:01;101562.19;;;10.28;100.00
78407;BME280;67692;51.074;-1.790;2024-01-30T01:02:28;101566.53;;;10.27;100.00
78407;BME280;67692;51.074;-1.790;2024-01-30T01:04:55;101554.78;;;10.20;100.00
78407;BME280;67692;51.074;-1.790;2024-01-30T01:07:22;101544.28;;;10.23;100.00
78407;BME280;67692;51.074;-1.790;2024-01-30T01:09:48;101536.13;;;10.31;100.00
78407;BME280;67692;51.074;-1.790;2024-01-30T01:12:15;101531.44;;;10.37;100.00
78407;BME280;67692;51.074;-1.790;2024-01-30T01:14:43;101539.94;;;10.39;100.00
78407;BME280;67692;51.074;-1.790;2024-01-30T01:17:10;101538.13;;;10.41;100.00
78407;BME280;67692;51.074;-1.790;2024-01-30T01:19:36;101545.66;;;10.46;100.00
78407;BME280;67692;51.074;-1.790;2024-01-30T01:22:03;101551.47;;;10.50;100.00
78407;BME280;67692;51.074;-1.790;2024-01-30T01:24:30;101554.91;;;10.50;100.00
78407;BME280;67692;51.074;-1.790;2024-01-30T01:26:57;101542.03;;;10.49;100.00
78407;BME280;67692;51.074;-1.790;2024-01-30T01:29:24;101547.78;;;10.54;100.00
78407;BME280;67692;51.074;-1.790;2024-01-30T01:31:55;101540.78;;;10.56;100.00
78407;BME280;67692;51.074;-1.790;2024-01-30T01:34:22;101540.13;;;10.52;100.00
78407;BME280;67692;51.074;-1.790;2024-01-30T01:36:49;101525.41;;;10.53;100.00
78407;BME280;67692;51.074;-1.790;2024-01-30T01:39:15;101520.91;;;10.56;100.00
78407;BME280;67692;51.074;-1.790;2024-01-30T01:41:42;101527.50;;;10.46;100.00
78407;BME280;67692;51.074;-1.790;2024-01-30T01:44:09;101529.44;;;10.42;100.00
78407;BME280;67692;51.074;-1.790;2024-01-30T01:46:36;101523.50;;;10.40;100.00
78407;BME280;67692;51.074;-1.790;2024-01-30T01:49:05;101515.16;;;10.35;100.00
78407;BME280;67692;51.074;-1.790;2024-01-30T01:51:34;101524.59;;;10.36;100.00
78407;BME280;67692;51.074;-1.790;2024-01-30T01:54:03;101545.97;;;10.40;100.00
78407;BME280;67692;51.074;-1.790;2024-01-30T01:56:31;101558.25;;;10.36;100.00
78407;BME280;67692;51.074;-1.790;2024-01-30T01:59:00;101559.91;;;10.37;100.00
78407;BME280;67692;51.074;-1.790;2024-01-30T02:01:29;101552.13;;;10.37;100.00
78407;BME280;67692;51.074;-1.790;2024-01-30T02:03:55;101546.66;;;10.43;100.00
78407;BME280;67692;51.074;-1.790;2024-01-30T02:06:24;101547.56;;;10.42;100.00
78407;BME280;67692;51.074;-1.790;2024-01-30T02:08:50;101555.81;;;10.49;100.00
78407;BME280;67692;51.074;-1.790;2024-01-30T02:11:18;101560.34;;;10.46;100.00
78407;BME280;67692;51.074;-1.790;2024-01-30T02:13:45;101561.00;;;10.49;100.00
78407;BME280;67692;51.074;-1.790;2024-01-30T02:16:12;101574.78;;;10.50;100.00
78407;BME280;67692;51.074;-1.790;2024-01-30T02:18:39;101575.34;;;10.55;100.00
78407;BME280;67692;51.074;-1.790;2024-01-30T02:21:10;101583.00;;;10.58;100.00
78407;BME280;67692;51.074;-1.790;2024-01-30T02:23:37;101582.91;;;10.59;100.00
78407;BME280;67692;51.074;-1.790;2024-01-30T02:26:04;101583.72;;;10.60;100.00
78407;BME280;67692;51.074;-1.790;2024-01-30T02:28:31;101586.41;;;10.58;100.00
78407;BME280;67692;51.074;-1.790;2024-01-30T02:30:57;101596.25;;;10.52;100.00
78407;BME280;67692;51.074;-1.790;2024-01-30T02:33:24;101592.91;;;10.50;100.00
78407;BME280;67692;51.074;-1.790;2024-01-30T02:35:51;101596.06;;;10.55;100.00
78407;BME280;67692;51.074;-1.790;2024-01-30T02:38:19;101607.78;;;10.46;100.00
78407;BME280;67692;51.074;-1.790;2024-01-30T02:40:45;101609.19;;;10.36;100.00
78407;BME280;67692;51.074;-1.790;2024-01-30T02:43:12;101604.75;;;10.22;100.00
78407;BME280;67692;51.074;-1.790;2024-01-30T02:45:39;101602.84;;;10.08;99.08
78407;BME280;67692;51.074;-1.790;2024-01-30T02:48:06;101610.09;;;10.02;99.71
78407;BME280;67692;51.074;-1.790;2024-01-30T02:50:33;101617.69;;;10.05;99.59
78407;BME280;67692;51.074;-1.790;2024-01-30T02:53:00;101620.66;;;9.97;98.74
78407;BME280;67692;51.074;-1.790;2024-01-30T02:55:28;101626.53;;;10.01;98.92
78407;BME280;67692;51.074;-1.790;2024-01-30T02:57:54;101640.53;;;9.97;98.10
78407;BME280;67692;51.074;-1.790;2024-01-30T03:00:21;101648.03;;;9.86;97.08
78407;BME280;67692;51.074;-1.790;2024-01-30T03:02:48;101651.13;;;9.75;97.42
78407;BME280;67692;51.074;-1.790;2024-01-30T03:05:15;101653.81;;;9.56;96.88
78407;BME280;67692;51.074;-1.790;2024-01-30T03:07:41;101660.31;;;9.46;96.19
78407;BME280;67692;51.074;-1.790;2024-01-30T03:10:08;101657.13;;;9.41;95.67
78407;BME280;67692;51.074;-1.790;2024-01-30T03:12:37;101665.56;;;9.44;97.45
78407;BME280;67692;51.074;-1.790;2024-01-30T03:15:04;101661.84;;;9.50;97.78
78407;BME280;67692;51.074;-1.790;2024-01-30T03:17:30;101662.91;;;9.46;96.71
78407;BME280;67692;51.074;-1.790;2024-01-30T03:19:57;101667.75;;;9.35;96.86
78407;BME280;67692;51.074;-1.790;2024-01-30T03:22:24;101666.16;;;9.32;97.04
78407;BME280;67692;51.074;-1.790;2024-01-30T03:24:51;101662.91;;;9.29;97.83
78407;BME280;67692;51.074;-1.790;2024-01-30T03:27:17;101678.69;;;9.22;97.35
78407;BME280;67692;51.074;-1.790;2024-01-30T03:29:45;101683.00;;;9.22;98.23
78407;BME280;67692;51.074;-1.790;2024-01-30T03:32:12;101687.19;;;9.24;96.79
78407;BME280;67692;51.074;-1.790;2024-01-30T03:34:39;101684.34;;;9.31;97.46
78407;BME280;67692;51.074;-1.790;2024-01-30T03:37:06;101694.03;;;9.25;96.43
78407;BME280;67692;51.074;-1.790;2024-01-30T03:39:32;101700.75;;;9.11;95.78
78407;BME280;67692;51.074;-1.790;2024-01-30T03:41:59;101703.72;;;9.03;95.95
78407;BME280;67692;51.074;-1.790;2024-01-30T03:44:26;101696.66;;;8.88;97.44
78407;BME280;67692;51.074;-1.790;2024-01-30T03:46:54;101696.44;;;8.92;97.81
78407;BME280;67692;51.074;-1.790;2024-01-30T03:49:21;101703.13;;;8.97;96.72
78407;BME280;67692;51.074;-1.790;2024-01-30T03:51:47;101700.38;;;9.01;97.06
78407;BME280;67692;51.074;-1.790;2024-01-30T03:54:14;101705.38;;;9.04;96.89
78407;BME280;67692;51.074;-1.790;2024-01-30T03:56:41;101705.09;;;9.10;96.50
78407;BME280;67692;51.074;-1.790;2024-01-30T03:59:08;101707.47;;;9.15;96.31
78407;BME280;67692;51.074;-1.790;2024-01-30T04:01:34;101711.09;;;9.11;96.05
78407;BME280;67692;51.074;-1.790;2024-01-30T04:04:02;101715.41;;;9.10;96.16
78407;BME280;67692;51.074;-1.790;2024-01-30T04:06:29;101704.63;;;9.02;95.94
78407;BME280;67692;51.074;-1.790;2024-01-30T04:08:56;101700.81;;;9.09;96.61
78407;BME280;67692;51.074;-1.790;2024-01-30T04:11:22;101716.13;;;9.14;95.59
78407;BME280;67692;51.074;-1.790;2024-01-30T04:13:49;101728.78;;;9.01;95.91
78407;BME280;67692;51.074;-1.790;2024-01-30T04:16:20;101752.03;;;9.01;95.40
78407;BME280;67692;51.074;-1.790;2024-01-30T04:18:47;101750.31;;;8.81;94.92
78407;BME280;67692;51.074;-1.790;2024-01-30T04:21:15;101751.88;;;8.85;95.49
78407;BME280;67692;51.074;-1.790;2024-01-30T04:23:42;101754.19;;;8.91;96.20
78407;BME280;67692;51.074;-1.790;2024-01-30T04:26:08;101753.91;;;8.98;95.86
78407;BME280;67692;51.074;-1.790;2024-01-30T04:28:35;101760.69;;;9.00;94.69
78407;BME280;67692;51.074;-1.790;2024-01-30T04:31:02;101765.19;;;8.95;93.98
78407;BME280;67692;51.074;-1.790;2024-01-30T04:33:28;101770.38;;;8.95;94.77
78407;BME280;67692;51.074;-1.790;2024-01-30T04:35:55;101778.13;;;8.95;94.71
78407;BME280;67692;51.074;-1.790;2024-01-30T04:38:23;101776.88;;;8.85;95.55
78407;BME280;67692;51.074;-1.790;2024-01-30T04:40:50;101778.25;;;8.92;95.07
78407;BME280;67692;51.074;-1.790;2024-01-30T04:43:16;101780.38;;;8.84;94.64
78407;BME280;67692;51.074;-1.790;2024-01-30T04:45:44;101776.34;;;8.97;95.82
78407;BME280;67692;51.074;-1.790;2024-01-30T04:48:11;101791.84;;;8.97;95.12
78407;BME280;67692;51.074;-1.790;2024-01-30T04:50:37;101791.84;;;8.97;94.61
78407;BME280;67692;51.074;-1.790;2024-01-30T04:53:04;101806.69;;;8.92;94.28
78407;BME280;67692;51.074;-1.790;2024-01-30T04:55:32;101814.44;;;8.92;93.65
78407;BME280;67692;51.074;-1.790;2024-01-30T04:57:59;101816.88;;;8.95;93.92
78407;BME280;67692;51.074;-1.790;2024-01-30T05:00:26;101811.06;;;8.90;93.86
78407;BME280;67692;51.074;-1.790;2024-01-30T05:02:54;101819.34;;;8.78;93.55
78407;BME280;67692;51.074;-1.790;2024-01-30T05:05:21;101828.91;;;8.76;94.28
78407;BME280;67692;51.074;-1.790;2024-01-30T05:07:48;101834.63;;;8.82;94.04
78407;BME280;67692;51.074;-1.790;2024-01-30T05:10:15;101837.03;;;8.87;93.96
78407;BME280;67692;51.074;-1.790;2024-01-30T05:12:43;101841.38;;;8.86;93.01
78407;BME280;67692;51.074;-1.790;2024-01-30T05:15:10;101850.88;;;8.86;93.94
78407;BME280;67692;51.074;-1.790;2024-01-30T05:17:36;101849.44;;;8.99;94.17
78407;BME280;67692;51.074;-1.790;2024-01-30T05:20:04;101839.41;;;8.91;93.34
78407;BME280;67692;51.074;-1.790;2024-01-30T05:22:31;101840.78;;;8.80;92.00
78407;BME280;67692;51.074;-1.790;2024-01-30T05:24:58;101834.91;;;8.76;93.33
78407;BME280;67692;51.074;-1.790;2024-01-30T05:27:24;101849.56;;;8.76;93.80
78407;BME280;67692;51.074;-1.790;2024-01-30T05:29:52;101860.03;;;8.73;92.65
78407;BME280;67692;51.074;-1.790;2024-01-30T05:32:19;101864.22;;;8.75;93.94
78407;BME280;67692;51.074;-1.790;2024-01-30T05:34:46;101862.94;;;8.65;92.51
78407;BME280;67692;51.074;-1.790;2024-01-30T05:37:12;101852.34;;;8.71;92.43
78407;BME280;67692;51.074;-1.790;2024-01-30T05:39:42;101867.53;;;8.58;91.54
78407;BME280;67692;51.074;-1.790;2024-01-30T05:42:08;101864.03;;;8.59;92.36
78407;BME280;67692;51.074;-1.790;2024-01-30T05:44:35;101869.34;;;8.56;92.64
78407;BME280;67692;51.074;-1.790;2024-01-30T05:47:03;101861.81;;;8.50;92.22
78407;BME280;67692;51.074;-1.790;2024-01-30T05:49:30;101879.13;;;8.48;92.54
78407;BME280;67692;51.074;-1.790;2024-01-30T05:51:57;101880.94;;;8.46;92.61
78407;BME280;67692;51.074;-1.790;2024-01-30T05:54:23;101895.78;;;8.41;93.45
78407;BME280;67692;51.074;-1.790;2024-01-30T05:56:50;101904.81;;;8.51;93.29
78407;BME280;67692;51.074;-1.790;2024-01-30T05:59:17;101908.00;;;8.58;93.66
78407;BME280;67692;51.074;-1.790;2024-01-30T06:01:45;101911.22;;;8.63;93.96
78407;BME280;67692;51.074;-1.790;2024-01-30T06:04:14;101916.72;;;8.55;92.41
78407;BME280;67692;51.074;-1.790;2024-01-30T06:06:41;101924.44;;;8.55;92.96
78407;BME280;67692;51.074;-1.790;2024-01-30T06:09:07;101917.78;;;8.50;92.51
78407;BME280;67692;51.074;-1.790;2024-01-30T06:11:34;101930.69;;;8.50;92.28
78407;BME280;67692;51.074;-1.790;2024-01-30T06:14:01;101943.72;;;8.47;93.01
78407;BME280;67692;51.074;-1.790;2024-01-30T06:16:28;101941.00;;;8.50;94.19
78407;BME280;67692;51.074;-1.790;2024-01-30T06:18:55;101940.44;;;8.43;94.21
78407;BME280;67692;51.074;-1.790;2024-01-30T06:21:23;101929.97;;;8.46;94.41
78407;BME280;67692;51.074;-1.790;2024-01-30T06:23:50;101944.03;;;8.39;94.62
78407;BME280;67692;51.074;-1.790;2024-01-30T06:26:17;101946.50;;;8.42;94.51
78407;BME280;67692;51.074;-1.790;2024-01-30T06:28:44;101951.59;;;8.44;94.76
78407;BME280;67692;51.074;-1.790;2024-01-30T06:31:10;101960.03;;;8.47;94.19
78407;BME280;67692;51.074;-1.790;2024-01-30T06:33:37;101961.72;;;8.48;94.52
78407;BME280;67692;51.074;-1.790;2024-01-30T06:36:04;101968.34;;;8.55;94.06
78407;BME280;67692;51.074;-1.790;2024-01-30T06:38:32;101973.66;;;8.51;94.49
78407;BME280;67692;51.074;-1.790;2024-01-30T06:40:59;101965.63;;;8.58;94.08
78407;BME280;67692;51.074;-1.790;2024-01-30T06:43:25;101988.19;;;8.53;93.98
78407;BME280;67692;51.074;-1.790;2024-01-30T06:45:52;101992.34;;;8.57;93.07
78407;BME280;67692;51.074;-1.790;2024-01-30T06:48:19;101993.13;;;8.59;93.31
78407;BME280;67692;51.074;-1.790;2024-01-30T06:50:45;101998.75;;;8.47;93.62
78407;BME280;67692;51.074;-1.790;2024-01-30T06:53:13;102004.06;;;8.44;93.67
78407;BME280;67692;51.074;-1.790;2024-01-30T06:55:41;102003.44;;;8.38;94.10
78407;BME280;67692;51.074;-1.790;2024-01-30T06:58:08;102009.44;;;8.38;92.82
78407;BME280;67692;51.074;-1.790;2024-01-30T07:00:34;102022.31;;;8.40;93.47
78407;BME280;67692;51.074;-1.790;2024-01-30T07:03:01;102016.56;;;8.31;93.00
78407;BME280;67692;51.074;-1.790;2024-01-30T07:05:28;102022.81;;;8.24;92.74
78407;BME280;67692;51.074;-1.790;2024-01-30T07:07:55;102026.44;;;8.20;93.75
78407;BME280;67692;51.074;-1.790;2024-01-30T07:10:21;102027.00;;;8.28;94.47
78407;BME280;67692;51.074;-1.790;2024-01-30T07:12:49;102039.63;;;8.36;93.72
78407;BME280;67692;51.074;-1.790;2024-01-30T07:15:16;102045.56;;;8.38;93.79
78407;BME280;67692;51.074;-1.790;2024-01-30T07:17:45;102044.63;;;8.41;93.68
78407;BME280;67692;51.074;-1.790;2024-01-30T07:20:12;102043.78;;;8.40;93.72
78407;BME280;67692;51.074;-1.790;2024-01-30T07:22:40;102059.50;;;8.34;94.31
78407;BME280;67692;51.074;-1.790;2024-01-30T07:25:07;102060.44;;;8.31;93.58
78407;BME280;67692;51.074;-1.790;2024-01-30T07:27:34;102054.34;;;8.34;94.06
78407;BME280;67692;51.074;-1.790;2024-01-30T07:30:04;102064.44;;;8.40;94.82
78407;BME280;67692;51.074;-1.790;2024-01-30T07:32:31;102058.69;;;8.32;94.52
78407;BME280;67692;51.074;-1.790;2024-01-30T07:34:58;102060.38;;;8.33;94.36
78407;BME280;67692;51.074;-1.790;2024-01-30T07:37:24;102075.75;;;8.36;94.62
78407;BME280;67692;51.074;-1.790;2024-01-30T07:39:51;102078.28;;;8.38;94.52
78407;BME280;67692;51.074;-1.790;2024-01-30T07:42:18;102079.81;;;8.43;94.56
78407;BME280;67692;51.074;-1.790;2024-01-30T07:44:44;102084.19;;;8.41;94.26
78407;BME280;67692;51.074;-1.790;2024-01-30T07:47:13;102076.50;;;8.40;94.50
78407;BME280;67692;51.074;-1.790;2024-01-30T07:49:39;102083.41;;;8.39;94.11
78407;BME280;67692;51.074;-1.790;2024-01-30T07:52:06;102090.91;;;8.45;93.97
78407;BME280;67692;51.074;-1.790;2024-01-30T07:54:33;102095.94;;;8.48;94.82
78407;BME280;67692;51.074;-1.790;2024-01-30T07:57:00;102099.31;;;8.50;93.39
78407;BME280;67692;51.074;-1.790;2024-01-30T07:59:27;102100.00;;;8.55;94.21
78407;BME280;67692;51.074;-1.790;2024-01-30T08:01:53;102108.41;;;8.60;93.39
78407;BME280;67692;51.074;-1.790;2024-01-30T08:04:21;102110.88;;;8.63;94.06
78407;BME280;67692;51.074;-1.790;2024-01-30T08:06:48;102109.13;;;8.64;93.68
78407;BME280;67692;51.074;-1.790;2024-01-30T08:09:15;102121.88;;;8.69;93.12
78407;BME280;67692;51.074;-1.790;2024-01-30T08:11:41;102122.72;;;8.69;93.12
78407;BME280;67692;51.074;-1.790;2024-01-30T08:14:08;102133.88;;;8.70;94.38
78407;BME280;67692;51.074;-1.790;2024-01-30T08:16:35;102128.72;;;8.70;93.70
78407;BME280;67692;51.074;-1.790;2024-01-30T08:19:02;102130.22;;;8.75;94.41
78407;BME280;67692;51.074;-1.790;2024-01-30T08:21:30;102135.44;;;8.74;94.10
78407;BME280;67692;51.074;-1.790;2024-01-30T08:24:01;102139.91;;;8.70;93.47
78407;BME280;67692;51.074;-1.790;2024-01-30T08:26:28;102147.59;;;8.72;94.03
78407;BME280;67692;51.074;-1.790;2024-01-30T08:28:55;102152.88;;;8.69;93.96
78407;BME280;67692;51.074;-1.790;2024-01-30T08:31:21;102157.91;;;8.72;94.40
78407;BME280;67692;51.074;-1.790;2024-01-30T08:33:48;102162.34;;;8.68;93.78
78407;BME280;67692;51.074;-1.790;2024-01-30T08:36:15;102164.06;;;8.68;95.76
78407;BME280;67692;51.074;-1.790;2024-01-30T08:38:43;102166.56;;;8.71;93.03
78407;BME280;67692;51.074;-1.790;2024-01-30T08:41:10;102170.63;;;8.76;93.42
78407;BME280;67692;51.074;-1.790;2024-01-30T08:43:36;102180.72;;;8.82;93.64
78407;BME280;67692;51.074;-1.790;2024-01-30T08:46:03;102179.78;;;8.85;93.11
78407;BME280;67692;51.074;-1.790;2024-01-30T08:48:30;102180.72;;;8.82;92.33
78407;BME280;67692;51.074;-1.790;2024-01-30T08:50:57;102183.50;;;8.78;91.96
78407;BME280;67692;51.074;-1.790;2024-01-30T08:53:23;102186.78;;;8.81;92.73
78407;BME280;67692;51.074;-1.790;2024-01-30T08:55:52;102195.75;;;8.73;92.66
78407;BME280;67692;51.074;-1.790;2024-01-30T08:58:19;102204.28;;;8.75;93.89
78407;BME280;67692;51.074;-1.790;2024-01-30T09:00:46;102207.88;;;8.71;92.87
78407;BME280;67692;51.074;-1.790;2024-01-30T09:03:13;102209.44;;;8.75;93.34
78407;BME280;67692;51.074;-1.790;2024-01-30T09:05:39;102212.91;;;8.74;92.53
78407;BME280;67692;51.074;-1.790;2024-01-30T09:08:06;102217.00;;;8.79;92.27
78407;BME280;67692;51.074;-1.790;2024-01-30T09:10:33;102209.19;;;8.81;92.74
78407;BME280;67692;51.074;-1.790;2024-01-30T09:13:01;102212.59;;;8.83;92.32
78407;BME280;67692;51.074;-1.790;2024-01-30T09:15:27;102222.03;;;8.84;92.04
78407;BME280;67692;51.074;-1.790;2024-01-30T09:17:54;102221.22;;;8.82;90.56
78407;BME280;67692;51.074;-1.790;2024-01-30T09:20:21;102226.34;;;8.83;90.94
78407;BME280;67692;51.074;-1.790;2024-01-30T09:22:48;102227.13;;;8.85;91.58
78407;BME280;67692;51.074;-1.790;2024-01-30T09:25:15;102235.53;;;8.90;91.20
78407;BME280;67692;51.074;-1.790;2024-01-30T09:27:44;102247.63;;;8.90;90.78
78407;BME280;67692;51.074;-1.790;2024-01-30T09:30:12;102258.72;;;8.92;89.31
78407;BME280;67692;51.074;-1.790;2024-01-30T09:32:39;102262.03;;;8.95;90.09
78407;BME280;67692;51.074;-1.790;2024-01-30T09:35:06;102252.97;;;8.85;89.50
78407;BME280;67692;51.074;-1.790;2024-01-30T09:37:33;102254.78;;;8.82;90.35
78407;BME280;67692;51.074;-1.790;2024-01-30T09:40:00;102265.03;;;8.85;90.32
78407;BME280;67692;51.074;-1.790;2024-01-30T09:42:30;102265.69;;;8.90;89.52
78407;BME280;67692;51.074;-1.790;2024-01-30T09:45:01;102270.63;;;8.96;90.49
78407;BME280;67692;51.074;-1.790;2024-01-30T09:47:31;102277.16;;;9.06;90.22
78407;BME280;67692;51.074;-1.790;2024-01-30T09:49:58;102271.19;;;9.04;90.40
78407;BME280;67692;51.074;-1.790;2024-01-30T09:52:25;102283.88;;;9.10;90.43
78407;BME280;67692;51.074;-1.790;2024-01-30T09:54:53;102290.72;;;9.13;90.21
78407;BME280;67692;51.074;-1.790;2024-01-30T09:57:19;102296.59;;;9.16;91.41
78407;BME280;67692;51.074;-1.790;2024-01-30T09:59:46;102293.00;;;9.20;90.16
78407;BME280;67692;51.074;-1.790;2024-01-30T10:02:13;102298.22;;;9.19;89.71
78407;BME280;67692;51.074;-1.790;2024-01-30T10:04:42;102311.72;;;9.27;89.74
78407;BME280;67692;51.074;-1.790;2024-01-30T10:07:10;102310.06;;;9.24;88.45
78407;BME280;67692;51.074;-1.790;2024-01-30T10:09:37;102324.56;;;9.29;89.67
78407;BME280;67692;51.074;-1.790;2024-01-30T10:12:05;102320.06;;;9.34;89.62
78407;BME280;67692;51.074;-1.790;2024-01-30T10:14:33;102332.88;;;9.37;91.23
78407;BME280;67692;51.074;-1.790;2024-01-30T10:17:01;102334.91;;;9.29;88.18
78407;BME280;67692;51.074;-1.790;2024-01-30T10:19:28;102337.50;;;9.29;88.25
78407;BME280;67692;51.074;-1.790;2024-01-30T10:21:56;102346.22;;;9.26;86.91
78407;BME280;67692;51.074;-1.790;2024-01-30T10:24:24;102339.34;;;9.25;88.38
78407;BME280;67692;51.074;-1.790;2024-01-30T10:26:51;102346.16;;;9.28;89.15
78407;BME280;67692;51.074;-1.790;2024-01-30T10:29:18;102345.13;;;9.32;88.98
78407;BME280;67692;51.074;-1.790;2024-01-30T10:31:44;102355.47;;;9.32;88.24
78407;BME280;67692;51.074;-1.790;2024-01-30T10:34:12;102356.19;;;9.35;88.61
78407;BME280;67692;51.074;-1.790;2024-01-30T10:36:40;102363.88;;;9.37;89.54
78407;BME280;67692;51.074;-1.790;2024-01-30T10:39:09;102362.00;;;9.42;88.62
78407;BME280;67692;51.074;-1.790;2024-01-30T10:41:42;102367.78;;;9.48;89.06
78407;BME280;67692;51.074;-1.790;2024-01-30T10:44:10;102375.47;;;9.50;88.95
78407;BME280;67692;51.074;-1.790;2024-01-30T10:46:38;102384.75;;;9.56;89.37
78407;BME280;67692;51.074;-1.790;2024-01-30T10:49:05;102381.34;;;9.55;87.22
78407;BME280;67692;51.074;-1.790;2024-01-30T10:51:32;102389.97;;;9.54;86.89
78407;BME280;67692;51.074;-1.790;2024-01-30T10:54:01;102395.94;;;9.56;86.80
78407;BME280;67692;51.074;-1.790;2024-01-30T10:56:32;102395.19;;;9.52;87.67
78407;BME280;67692;51.074;-1.790;2024-01-30T10:58:59;102403.66;;;9.58;87.11
78407;BME280;67692;51.074;-1.790;2024-01-30T11:01:28;102394.97;;;9.59;87.77
78407;BME280;67692;51.074;-1.790;2024-01-30T11:03:55;102403.97;;;9.48;85.44
78407;BME280;67692;51.074;-1.790;2024-01-30T11:06:23;102403.31;;;9.43;86.76
78407;BME280;67692;51.074;-1.790;2024-01-30T11:09:00;102414.31;;;9.48;86.40
78407;BME280;67692;51.074;-1.790;2024-01-30T11:11:30;102415.41;;;9.43;85.76
78407;BME280;67692;51.074;-1.790;2024-01-30T11:14:00;102412.94;;;9.38;85.55
78407;BME280;67692;51.074;-1.790;2024-01-30T11:16:30;102415.72;;;9.34;85.88
78407;BME280;67692;51.074;-1.790;2024-01-30T11:19:00;102413.91;;;9.36;85.62
78407;BME280;67692;51.074;-1.790;2024-01-30T11:21:27;102406.22;;;9.34;87.14
78407;BME280;67692;51.074;-1.790;2024-01-30T11:23:54;102416.38;;;9.39;87.30
78407;BME280;67692;51.074;-1.790;2024-01-30T11:26:27;102418.13;;;9.38;87.43
78407;BME280;67692;51.074;-1.790;2024-01-30T11:28:55;102420.75;;;9.37;86.72
78407;BME280;67692;51.074;-1.790;2024-01-30T11:31:22;102424.94;;;9.41;86.39
78407;BME280;67692;51.074;-1.790;2024-01-30T11:33:52;102431.00;;;9.40;86.58
78407;BME280;67692;51.074;-1.790;2024-01-30T11:36:23;102427.63;;;9.38;86.21
78407;BME280;67692;51.074;-1.790;2024-01-30T11:38:51;102431.47;;;9.28;86.00
78407;BME280;67692;51.074;-1.790;2024-01-30T11:41:18;102437.78;;;9.19;87.12
78407;BME280;67692;51.074;-1.790;2024-01-30T11:43:51;102437.25;;;9.09;84.96
78407;BME280;67692;51.074;-1.790;2024-01-30T11:46:19;102442.81;;;8.99;83.86
78407;BME280;67692;51.074;-1.790;2024-01-30T11:48:46;102438.53;;;8.98;85.32
78407;BME280;67692;51.074;-1.790;2024-01-30T11:51:13;102432.06;;;9.09;86.62
78407;BME280;67692;51.074;-1.790;2024-01-30T11:53:41;102433.69;;;9.13;85.40
78407;BME280;67692;51.074;-1.790;2024-01-30T11:56:08;102434.09;;;9.01;84.05
78407;BME280;67692;51.074;-1.790;2024-01-30T11:58:35;102429.94;;;8.97;85.47
78407;BME280;67692;51.074;-1.790;2024-01-30T12:01:01;102430.91;;;8.93;85.12
78407;BME280;67692;51.074;-1.790;2024-01-30T12:03:29;102434.03;;;9.03;85.74
78407;BME280;67692;51.074;-1.790;2024-01-30T12:05:56;102434.84;;;9.05;85.00
78407;BME280;67692;51.074;-1.790;2024-01-30T12:08:23;102434.09;;;9.01;84.35
78407;BME280;67692;51.074;-1.790;2024-01-30T12:10:55;102433.03;;;9.07;85.48
78407;BME280;67692;51.074;-1.790;2024-01-30T12:13:22;102442.16;;;9.17;86.65
78407;BME280;67692;51.074;-1.790;2024-01-30T12:15:50;102450.44;;;9.27;85.82
78407;BME280;67692;51.074;-1.790;2024-01-30T12:18:18;102449.19;;;9.13;83.21
78407;BME280;67692;51.074;-1.790;2024-01-30T12:20:56;102451.22;;;9.04;83.50
78407;BME280;67692;51.074;-1.790;2024-01-30T12:23:23;102440.72;;;9.08;85.02
78407;BME280;67692;51.074;-1.790;2024-01-30T12:25:51;102452.97;;;9.03;83.64
78407;BME280;67692;51.074;-1.790;2024-01-30T12:28:18;102442.34;;;9.12;84.84
78407;BME280;67692;51.074;-1.790;2024-01-30T12:30:45;102451.84;;;9.10;82.94
78407;BME280;67692;51.074;-1.790;2024-01-30T12:33:16;102455.81;;;9.20;83.29
78407;BME280;67692;51.074;-1.790;2024-01-30T12:35:46;102460.88;;;9.23;82.72
78407;BME280;67692;51.074;-1.790;2024-01-30T12:38:13;102457.03;;;9.10;80.22
78407;BME280;67692;51.074;-1.790;2024-01-30T12:40:40;102451.84;;;9.10;82.41
78407;BME280;67692;51.074;-1.790;2024-01-30T12:43:07;102461.41;;;9.08;80.99
78407;BME280;67692;51.074;-1.790;2024-01-30T12:45:34;102465.72;;;9.08;81.28